createdAt,value
2023-11-22T00:00:44.905Z,8.82
2023-11-22T00:02:48.283Z,8.18
2023-11-22T00:04:50.416Z,8.75
2023-11-22T00:06:52.394Z,9.60
2023-11-22T00:08:54.427Z,9.93
2023-11-22T00:10:56.478Z,9.80
2023-11-22T00:12:59.864Z,9.93
2023-11-22T00:15:04.537Z,10.27
2023-11-22T00:17:06.807Z,11.43
2023-11-22T00:19:08.843Z,9.40
2023-11-22T00:21:11.064Z,11.38
2023-11-22T00:23:14.272Z,10.35
2023-11-22T00:25:16.577Z,11.95
2023-11-22T00:27:18.728Z,12.48
2023-11-22T00:29:20.788Z,11.15
2023-11-22T00:31:24.570Z,9.02
2023-11-22T00:33:26.664Z,10.50
2023-11-22T00:35:28.723Z,10.60
2023-11-22T00:37:30.800Z,12.02
2023-11-22T00:39:32.939Z,12.13
2023-11-22T00:41:36.633Z,11.57
2023-11-22T00:43:38.658Z,11.30
2023-11-22T00:45:41.115Z,9.57
2023-11-22T00:47:44.544Z,11.07
2023-11-22T00:49:47.709Z,9.73
2023-11-22T00:51:49.681Z,12.45
2023-11-22T00:53:52.163Z,9.88
2023-11-22T00:55:54.182Z,10.23
2023-11-22T00:57:57.544Z,10.30
2023-11-22T00:59:59.590Z,10.13
2023-11-22T01:02:03.378Z,10.10
2023-11-22T01:04:08.372Z,11.07
2023-11-22T01:08:12.845Z,10.30
2023-11-22T01:10:16.496Z,10.55
2023-11-22T01:12:18.586Z,10.95
2023-11-22T01:14:20.818Z,10.05
2023-11-22T01:16:23.745Z,8.90
2023-11-22T01:18:26.086Z,10.85
2023-11-22T01:20:29.673Z,10.43
2023-11-22T01:22:32.159Z,10.77
2023-11-22T01:24:34.339Z,8.63
2023-11-22T01:26:37.126Z,8.75
2023-11-22T01:28:45.160Z,10.70
2023-11-22T01:30:47.347Z,11.25
2023-11-22T01:32:50.444Z,8.38
2023-11-22T01:34:52.758Z,12.52
2023-11-22T01:36:56.072Z,11.48
2023-11-22T01:38:58.256Z,10.88
2023-11-22T01:41:01.601Z,10.15
2023-11-22T01:43:03.691Z,11.40
2023-11-22T01:45:06.832Z,10.57
2023-11-22T01:47:09.753Z,11.13
2023-11-22T01:49:12.261Z,11.10
2023-11-22T01:51:14.305Z,12.20
2023-11-22T01:53:18.253Z,11.15
2023-11-22T01:55:20.339Z,11.50
2023-11-22T01:57:22.581Z,11.30
2023-11-22T01:59:27.219Z,10.88
2023-11-22T02:01:29.880Z,11.75
2023-11-22T02:03:32.013Z,12.88
2023-11-22T02:05:34.737Z,13.05
2023-11-22T02:07:36.705Z,12.70
2023-11-22T02:09:40.054Z,12.15
2023-11-22T02:11:43.268Z,12.95
2023-11-22T02:13:45.429Z,11.30
2023-11-22T02:15:47.821Z,13.10
2023-11-22T02:17:50.068Z,14.10
2023-11-22T02:19:52.967Z,14.57
2023-11-22T02:21:54.970Z,13.80
2023-11-22T02:23:58.282Z,15.88
2023-11-22T02:26:00.333Z,14.70
2023-11-22T02:28:03.512Z,14.80
2023-11-22T02:30:06.876Z,15.43
2023-11-22T02:32:09.251Z,14.52
2023-11-22T02:34:11.496Z,14.57
2023-11-22T02:36:13.775Z,16.33
2023-11-22T02:38:16.008Z,14.35
2023-11-22T02:40:21.225Z,15.95
2023-11-22T02:42:25.596Z,14.00
2023-11-22T02:44:27.983Z,15.43
2023-11-22T02:46:32.296Z,14.35
2023-11-22T02:48:34.668Z,14.27
2023-11-22T02:50:38.168Z,15.00
2023-11-22T02:52:40.209Z,14.07
2023-11-22T02:54:44.822Z,14.23
2023-11-22T02:56:48.230Z,13.27
2023-11-22T02:58:50.194Z,14.90
2023-11-22T03:00:55.769Z,13.18
2023-11-22T03:02:58.083Z,13.13
2023-11-22T03:05:00.508Z,12.10
2023-11-22T03:07:02.881Z,13.15
2023-11-22T03:09:05.704Z,12.57
2023-11-22T03:11:08.070Z,12.43
2023-11-22T03:13:11.656Z,12.98
2023-11-22T03:15:13.869Z,14.32
2023-11-22T03:17:16.369Z,12.52
2023-11-22T03:19:20.562Z,14.35
2023-11-22T03:21:22.638Z,12.93
2023-11-22T03:23:24.704Z,12.88
2023-11-22T03:25:26.770Z,13.10
2023-11-22T03:27:28.748Z,10.57
2023-11-22T03:29:32.175Z,13.18
2023-11-22T03:31:34.252Z,13.27
2023-11-22T03:33:36.206Z,13.35
2023-11-22T03:39:52.312Z,11.70
2023-11-22T03:41:54.626Z,12.00
2023-11-22T03:43:57.032Z,12.30
2023-11-22T03:46:00.553Z,11.75
2023-11-22T03:48:02.561Z,12.32
2023-11-22T03:50:06.731Z,10.30
2023-11-22T03:52:09.377Z,10.38
2023-11-22T03:54:13.628Z,11.13
2023-11-22T03:56:15.679Z,12.27
2023-11-22T03:58:19.155Z,10.85
2023-11-22T04:00:21.203Z,11.20
2023-11-22T04:02:24.876Z,10.05
2023-11-22T04:04:26.845Z,10.75
2023-11-22T04:06:29.108Z,9.85
2023-11-22T04:08:31.658Z,10.27
2023-11-22T04:10:33.690Z,10.93
2023-11-22T04:12:37.059Z,10.05
2023-11-22T04:14:39.298Z,9.75
2023-11-22T04:16:41.741Z,11.40
2023-11-22T04:18:45.763Z,10.65
2023-11-22T04:20:49.004Z,12.37
2023-11-22T04:22:52.008Z,10.32
2023-11-22T04:24:54.024Z,11.38
2023-11-22T04:26:56.034Z,11.07
2023-11-22T04:28:59.639Z,12.02
2023-11-22T04:31:01.856Z,11.10
2023-11-22T04:33:04.042Z,11.48
2023-11-22T04:35:09.039Z,11.65
2023-11-22T04:39:14.153Z,12.30
2023-11-22T04:41:16.767Z,12.80
2023-11-22T04:43:18.743Z,10.32
2023-11-22T04:45:20.945Z,12.48
2023-11-22T04:47:23.557Z,11.60
2023-11-22T04:49:25.594Z,13.07
2023-11-22T04:51:30.344Z,11.65
2023-11-22T04:53:33.411Z,13.30
2023-11-22T04:55:35.595Z,12.93
2023-11-22T04:57:37.657Z,13.43
2023-11-22T04:59:39.789Z,12.27
2023-11-22T05:01:42.022Z,12.52
2023-11-22T05:03:44.263Z,13.68
2023-11-22T05:05:46.973Z,13.27
2023-11-22T05:07:50.288Z,11.75
2023-11-22T05:09:52.281Z,12.23
2023-11-22T05:11:54.520Z,11.13
2023-11-22T05:13:56.768Z,12.40
2023-11-22T05:15:58.788Z,11.77
2023-11-22T05:18:01.325Z,12.02
2023-11-22T05:20:03.748Z,12.40
2023-11-22T05:22:06.348Z,11.15
2023-11-22T05:24:10.097Z,11.90
2023-11-22T05:26:12.232Z,11.10
2023-11-22T05:28:14.293Z,12.88
2023-11-22T05:30:17.950Z,12.10
2023-11-22T05:32:20.026Z,12.52
2023-11-22T05:34:22.249Z,10.80
2023-11-22T05:36:25.593Z,11.95
2023-11-22T05:38:28.234Z,11.95
2023-11-22T05:40:31.815Z,10.10
2023-11-22T05:42:36.225Z,11.18
2023-11-22T05:44:38.807Z,10.82
2023-11-22T05:46:41.357Z,11.70
2023-11-22T05:48:43.384Z,10.98
2023-11-22T05:50:46.537Z,10.95
2023-11-22T05:52:49.090Z,11.50
2023-11-22T05:54:51.222Z,11.07
2023-11-22T05:56:55.478Z,11.27
2023-11-22T05:59:00.636Z,11.50
2023-11-22T06:01:02.601Z,10.18
2023-11-22T06:03:04.582Z,12.02
2023-11-22T06:05:07.937Z,11.93
2023-11-22T06:07:10.181Z,11.27
2023-11-22T06:09:15.504Z,11.40
2023-11-22T06:11:17.494Z,11.95
2023-11-22T06:13:20.966Z,12.90
2023-11-22T06:15:23.617Z,11.02
2023-11-22T06:17:25.710Z,12.25
2023-11-22T06:19:27.818Z,11.88
2023-11-22T06:21:30.262Z,12.48
2023-11-22T06:23:32.376Z,12.80
2023-11-22T06:25:34.401Z,12.65
2023-11-22T06:27:36.463Z,12.82
2023-11-22T06:29:39.804Z,12.75
2023-11-22T06:31:41.814Z,10.98
2023-11-22T06:33:43.749Z,13.10
2023-11-22T06:35:46.241Z,12.77
2023-11-22T06:37:48.576Z,14.73
2023-11-22T06:39:51.958Z,14.38
2023-11-22T06:41:54.112Z,13.82
2023-11-22T06:43:56.112Z,12.75
2023-11-22T06:45:59.376Z,14.10
2023-11-22T06:48:01.426Z,15.27
2023-11-22T06:50:10.118Z,13.43
2023-11-22T06:52:12.195Z,13.02
2023-11-22T06:54:14.168Z,14.55
2023-11-22T06:56:16.218Z,15.57
2023-11-22T06:58:19.091Z,14.50
2023-11-22T07:00:21.571Z,17.40
2023-11-22T07:02:25.527Z,16.00
2023-11-22T07:04:28.818Z,15.63
2023-11-22T07:06:30.781Z,16.45
2023-11-22T07:08:33.064Z,17.23
2023-11-22T07:10:35.105Z,17.73
2023-11-22T07:12:37.718Z,16.38
2023-11-22T07:14:40.403Z,15.43
2023-11-22T07:16:42.364Z,17.85
2023-11-22T07:18:46.333Z,18.25
2023-11-22T07:20:49.340Z,15.25
2023-11-22T07:22:56.302Z,18.10
2023-11-22T07:25:02.485Z,16.55
2023-11-22T07:27:05.130Z,14.95
2023-11-22T07:29:07.657Z,17.27
2023-11-22T07:31:10.409Z,17.88
2023-11-22T07:33:12.737Z,17.05
2023-11-22T07:35:16.729Z,19.45
2023-11-22T07:37:19.356Z,21.08
2023-11-22T07:39:28.236Z,18.67
2023-11-22T07:41:32.350Z,20.73
2023-11-22T07:43:34.365Z,15.15
2023-11-22T07:45:38.298Z,18.83
2023-11-22T07:47:41.673Z,19.77
2023-11-22T07:49:44.140Z,21.95
2023-11-22T07:51:47.466Z,19.05
2023-11-22T07:53:49.824Z,21.38
2023-11-22T07:55:53.068Z,21.23
2023-11-22T07:57:56.876Z,22.10
2023-11-22T07:59:58.899Z,20.92
2023-11-22T08:02:02.822Z,20.15
2023-11-22T08:04:06.434Z,22.23
2023-11-22T08:06:09.650Z,20.73
2023-11-22T08:08:14.279Z,21.38
2023-11-22T08:10:19.674Z,22.30
2023-11-22T08:12:22.339Z,20.40
2023-11-22T08:14:26.007Z,20.73
2023-11-22T08:16:28.293Z,20.83
2023-11-22T08:18:30.457Z,22.05
2023-11-22T08:20:32.819Z,18.77
2023-11-22T08:22:36.457Z,22.08
2023-11-22T08:24:39.996Z,21.85
2023-11-22T08:26:42.053Z,18.75
2023-11-22T08:28:44.091Z,21.67
2023-11-22T08:30:46.077Z,21.33
2023-11-22T08:32:54.706Z,22.33
2023-11-22T08:34:57.546Z,20.80
2023-11-22T08:37:00.221Z,19.15
2023-11-22T08:39:02.258Z,19.98
2023-11-22T08:41:06.918Z,19.38
2023-11-22T08:43:10.439Z,21.98
2023-11-22T08:45:13.210Z,20.27
2023-11-22T08:47:15.299Z,22.45
2023-11-22T08:49:17.266Z,21.67
2023-11-22T08:51:19.214Z,23.15
2023-11-22T08:53:21.332Z,19.35
2023-11-22T08:55:23.590Z,17.73
2023-11-22T08:57:27.003Z,16.02
2023-11-22T08:59:29.388Z,20.33
2023-11-22T09:01:31.540Z,17.55
2023-11-22T09:03:34.144Z,15.98
2023-11-22T09:05:37.280Z,18.00
2023-11-22T09:07:40.462Z,14.77
2023-11-22T09:09:44.350Z,19.55
2023-11-22T09:11:46.910Z,14.97
2023-11-22T09:13:51.438Z,19.08
2023-11-22T09:15:53.514Z,18.90
2023-11-22T09:17:56.370Z,14.85
2023-11-22T09:19:59.679Z,18.75
2023-11-22T09:22:01.956Z,18.90
2023-11-22T09:24:06.925Z,19.27
2023-11-22T09:26:09.286Z,19.15
2023-11-22T09:28:12.255Z,19.23
2023-11-22T09:30:20.991Z,19.27
2023-11-22T09:32:24.663Z,17.35
2023-11-22T09:34:27.465Z,18.65
2023-11-22T09:36:30.927Z,16.90
2023-11-22T09:38:32.971Z,14.80
2023-11-22T09:40:39.475Z,17.35
2023-11-22T09:42:42.472Z,20.05
2023-11-22T09:44:44.600Z,14.68
2023-11-22T09:46:49.950Z,16.83
2023-11-22T09:48:54.308Z,18.35
2023-11-22T09:51:02.326Z,18.92
2023-11-22T09:53:11.721Z,18.75
2023-11-22T09:55:14.623Z,13.27
2023-11-22T09:57:18.617Z,16.45
2023-11-22T09:59:24.706Z,17.43
2023-11-22T10:01:29.235Z,17.67
2023-11-22T10:03:33.115Z,18.15
2023-11-22T10:05:35.376Z,16.27
2023-11-22T10:07:37.678Z,15.13
2023-11-22T10:09:42.593Z,14.68
2023-11-22T10:13:48.935Z,15.00
2023-11-22T10:15:52.070Z,15.50
2023-11-22T10:18:02.588Z,14.25
2023-11-22T10:20:12.333Z,16.95
2023-11-22T10:22:18.552Z,14.48
2023-11-22T10:24:22.595Z,13.35
2023-11-22T10:26:25.685Z,18.10
2023-11-22T10:28:29.241Z,15.32
2023-11-22T10:30:31.454Z,14.80
2023-11-22T10:32:34.897Z,15.23
2023-11-22T10:34:37.630Z,14.35
2023-11-22T10:36:42.174Z,14.80
2023-11-22T10:38:48.660Z,11.85
2023-11-22T10:40:53.312Z,16.30
2023-11-22T10:42:57.438Z,15.95
2023-11-22T10:45:03.406Z,13.88
2023-11-22T10:47:06.368Z,15.10
2023-11-22T10:49:10.272Z,14.15
2023-11-22T10:51:15.321Z,14.50
2023-11-22T10:53:27.017Z,12.20
2023-11-22T10:55:33.461Z,14.23
2023-11-22T10:57:42.334Z,13.00
2023-11-22T10:59:46.708Z,14.77
2023-11-22T11:01:54.048Z,11.30
2023-11-22T11:04:02.059Z,14.60
2023-11-22T11:06:08.761Z,12.88
2023-11-22T11:08:14.050Z,14.40
2023-11-22T11:10:24.850Z,13.43
2023-11-22T11:12:28.313Z,13.90
2023-11-22T11:14:31.277Z,12.80
2023-11-22T11:16:38.860Z,13.68
2023-11-22T11:18:41.525Z,10.02
2023-11-22T11:20:50.547Z,12.23
2023-11-22T11:22:56.180Z,10.02
2023-11-22T11:25:04.352Z,11.80
2023-11-22T11:27:09.102Z,13.63
2023-11-22T11:29:30.964Z,10.63
2023-11-22T11:31:37.070Z,10.13
2023-11-22T11:33:55.160Z,9.50
2023-11-22T11:35:58.794Z,11.00
2023-11-22T11:38:02.925Z,9.75
2023-11-22T11:40:26.265Z,9.65
2023-11-22T11:42:30.089Z,10.23
2023-11-22T11:44:32.230Z,9.10
2023-11-22T11:46:34.445Z,8.43
2023-11-22T11:48:36.544Z,8.57
2023-11-22T11:50:38.780Z,10.18
2023-11-22T11:52:41.391Z,8.02
2023-11-22T11:54:43.724Z,6.70
2023-11-22T11:56:45.915Z,7.13
2023-11-22T11:58:50.681Z,6.50
2023-11-22T12:00:53.689Z,7.18
2023-11-22T12:02:55.734Z,6.30
2023-11-22T12:04:57.761Z,9.65
2023-11-22T12:06:59.911Z,9.02
2023-11-22T12:09:02.187Z,7.50
2023-11-22T12:11:06.021Z,6.00
2023-11-22T12:13:08.902Z,8.50
2023-11-22T12:15:12.653Z,7.53
2023-11-22T12:17:15.143Z,7.10
2023-11-22T12:19:24.066Z,6.38
2023-11-22T12:21:26.886Z,7.80
2023-11-22T12:23:29.768Z,6.88
2023-11-22T12:25:32.056Z,6.93
2023-11-22T12:27:34.062Z,5.55
2023-11-22T12:29:37.676Z,5.03
2023-11-22T12:31:47.486Z,8.88
2023-11-22T12:33:51.663Z,5.35
2023-11-22T12:35:54.906Z,4.57
2023-11-22T12:37:57.196Z,9.38
2023-11-22T12:39:59.302Z,5.68
2023-11-22T12:42:07.085Z,5.88
2023-11-22T12:44:13.817Z,5.47
2023-11-22T12:46:17.492Z,5.45
2023-11-22T12:48:25.652Z,4.07
2023-11-22T12:50:35.140Z,4.63
2023-11-22T12:52:37.242Z,5.88
2023-11-22T12:54:39.793Z,5.78
2023-11-22T12:56:42.257Z,5.00
2023-11-22T12:58:44.250Z,5.03
2023-11-22T13:00:47.388Z,5.82
2023-11-22T13:02:56.304Z,5.60
2023-11-22T13:05:13.198Z,4.28
2023-11-22T13:07:15.281Z,6.00
2023-11-22T13:09:18.023Z,5.13
2023-11-22T13:11:20.542Z,7.40
2023-11-22T13:13:22.829Z,5.47
2023-11-22T13:15:27.170Z,6.45
2023-11-22T13:17:29.498Z,6.43
2023-11-22T13:19:31.441Z,6.07
2023-11-22T13:21:34.830Z,5.15
2023-11-22T13:23:36.859Z,6.22
2023-11-22T13:25:39.264Z,4.60
2023-11-22T13:27:41.813Z,4.90
2023-11-22T13:29:45.192Z,5.53
2023-11-22T13:31:47.247Z,4.50
2023-11-22T13:33:49.340Z,4.63
2023-11-22T13:35:52.212Z,6.18
2023-11-22T13:37:55.729Z,5.50
2023-11-22T13:39:57.734Z,5.57
2023-11-22T13:41:59.717Z,4.65
2023-11-22T13:44:02.703Z,5.00
2023-11-22T13:46:05.909Z,5.20
2023-11-22T13:48:10.700Z,4.47
2023-11-22T13:50:15.328Z,4.50
2023-11-22T13:52:17.294Z,4.90
2023-11-22T13:54:20.846Z,4.18
2023-11-22T13:56:23.280Z,4.78
2023-11-22T13:58:25.581Z,4.18
2023-11-22T14:00:33.406Z,3.50
2023-11-22T14:02:35.516Z,3.70
2023-11-22T14:04:37.588Z,4.45
2023-11-22T14:06:39.542Z,4.10
2023-11-22T14:08:41.644Z,3.80
2023-11-22T14:10:45.988Z,3.45
2023-11-22T14:12:48.420Z,4.00
2023-11-22T14:14:50.454Z,3.47
2023-11-22T14:16:52.406Z,3.13
2023-11-22T14:18:54.556Z,2.72
2023-11-22T14:20:57.403Z,3.03
2023-11-22T14:22:59.587Z,3.08
2023-11-22T14:25:01.588Z,3.83
2023-11-22T14:27:05.020Z,3.42
2023-11-22T14:29:07.076Z,3.83
2023-11-22T14:31:11.888Z,3.92
2023-11-22T14:33:16.878Z,3.10
2023-11-22T14:35:19.089Z,4.28
2023-11-22T14:37:21.205Z,3.95
2023-11-22T14:39:23.130Z,4.70
2023-11-22T14:41:25.259Z,4.35
2023-11-22T14:43:28.676Z,4.07
2023-11-22T14:45:31.148Z,4.00
2023-11-22T14:47:37.159Z,3.88
2023-11-22T14:49:45.889Z,3.88
2023-11-22T14:51:49.496Z,3.50
2023-11-22T14:53:51.640Z,3.58
2023-11-22T14:55:53.973Z,3.60
2023-11-22T14:57:58.087Z,3.88
2023-11-22T15:00:01.511Z,3.78
2023-11-22T15:02:05.653Z,3.90
2023-11-22T15:04:07.757Z,4.88
2023-11-22T15:06:10.268Z,5.25
2023-11-22T15:08:12.367Z,5.40
2023-11-22T15:10:16.175Z,5.57
2023-11-22T15:12:19.883Z,5.35
2023-11-22T15:14:23.661Z,5.78
2023-11-22T15:16:27.897Z,5.70
2023-11-22T15:18:31.796Z,5.22
2023-11-22T15:20:34.898Z,5.32
2023-11-22T15:22:37.457Z,5.57
2023-11-22T15:24:39.472Z,5.53
2023-11-22T15:26:41.472Z,5.72
2023-11-22T15:28:43.462Z,5.57
2023-11-22T15:30:45.511Z,4.88
2023-11-22T15:32:49.437Z,4.30
2023-11-22T15:34:51.814Z,4.90
2023-11-22T15:36:53.889Z,6.03
2023-11-22T15:38:55.926Z,5.22
2023-11-22T15:41:07.839Z,5.50
2023-11-22T15:43:17.619Z,5.00
2023-11-22T15:45:19.568Z,6.22
2023-11-22T15:47:21.553Z,5.47
2023-11-22T15:49:25.380Z,5.35
2023-11-22T15:51:27.694Z,5.82
2023-11-22T15:53:29.699Z,5.03
2023-11-22T15:55:31.772Z,5.30
2023-11-22T15:57:34.224Z,5.10
2023-11-22T15:59:36.268Z,4.88
2023-11-22T16:01:38.339Z,5.10
2023-11-22T16:03:40.638Z,5.35
2023-11-22T16:05:44.538Z,5.97
2023-11-22T16:07:46.598Z,5.20
2023-11-22T16:09:49.436Z,5.63
2023-11-22T16:11:51.489Z,5.78
2023-11-22T16:13:53.545Z,5.65
2023-11-22T16:15:58.863Z,5.97
2023-11-22T16:18:01.068Z,4.85
2023-11-22T16:20:11.755Z,5.75
2023-11-22T16:22:15.329Z,4.85
2023-11-22T16:24:17.418Z,5.13
2023-11-22T16:26:20.504Z,5.40
2023-11-22T16:28:22.461Z,5.00
2023-11-22T16:30:24.442Z,7.40
2023-11-22T16:32:26.903Z,6.55
2023-11-22T16:34:29.248Z,5.65
2023-11-22T16:36:31.303Z,6.45
2023-11-22T16:38:35.124Z,6.18
2023-11-22T16:40:37.920Z,5.63
2023-11-22T16:42:39.961Z,5.47
2023-11-22T16:44:44.237Z,6.03
2023-11-22T16:46:50.318Z,6.05
2023-11-22T16:48:55.366Z,9.20
2023-11-22T16:52:59.354Z,6.22
2023-11-22T16:55:04.656Z,6.25
2023-11-22T16:57:07.043Z,5.55
2023-11-22T16:59:09.315Z,6.45
2023-11-22T17:01:11.731Z,6.88
2023-11-22T17:03:19.502Z,6.32
2023-11-22T17:05:24.069Z,6.00
2023-11-22T17:07:26.341Z,6.47
2023-11-22T17:09:28.362Z,6.47
2023-11-22T17:11:31.764Z,7.00
2023-11-22T17:13:33.944Z,7.07
2023-11-22T17:15:36.857Z,8.90
2023-11-22T17:17:40.500Z,16.33
2023-11-22T17:19:42.566Z,11.55
2023-11-22T17:21:44.748Z,10.75
2023-11-22T17:23:46.828Z,9.05
2023-11-22T17:25:48.954Z,8.32
2023-11-22T17:27:55.451Z,8.45
2023-11-22T17:29:58.377Z,8.95
2023-11-22T17:32:00.594Z,9.07
2023-11-22T17:34:02.765Z,8.00
2023-11-22T17:36:05.876Z,8.43
2023-11-22T17:38:08.310Z,9.60
2023-11-22T17:40:11.407Z,7.90
2023-11-22T17:42:13.796Z,8.25
2023-11-22T17:44:18.018Z,9.20
2023-11-22T17:46:20.059Z,8.23
2023-11-22T17:48:23.898Z,7.90
2023-11-22T17:50:26.001Z,8.60
2023-11-22T17:52:28.060Z,8.15
2023-11-22T17:54:30.065Z,7.30
2023-11-22T17:56:32.255Z,8.48
2023-11-22T17:58:35.491Z,8.10
2023-11-22T18:00:39.129Z,8.57
2023-11-22T18:02:41.482Z,8.77
2023-11-22T18:04:44.062Z,7.78
2023-11-22T18:06:46.203Z,8.88
2023-11-22T18:08:48.335Z,8.68
2023-11-22T18:10:53.176Z,9.20
2023-11-22T18:14:57.160Z,8.13
2023-11-22T18:17:00.838Z,7.97
2023-11-22T18:19:03.373Z,8.77
2023-11-22T18:21:05.991Z,9.10
2023-11-22T18:23:08.657Z,9.10
2023-11-22T18:25:12.641Z,9.45
2023-11-22T18:27:15.237Z,8.93
2023-11-22T18:29:17.317Z,10.13
2023-11-22T18:31:19.455Z,8.75
2023-11-22T18:33:22.971Z,8.63
2023-11-22T18:35:25.047Z,8.95
2023-11-22T18:37:28.152Z,8.60
2023-11-22T18:39:31.094Z,8.10
2023-11-22T18:41:33.910Z,9.68
2023-11-22T18:43:36.291Z,9.45
2023-11-22T18:45:38.300Z,9.10
2023-11-22T18:47:40.474Z,9.18
2023-11-22T18:49:44.432Z,9.18
2023-11-22T18:51:46.382Z,8.80
2023-11-22T18:53:50.241Z,8.43
2023-11-22T18:55:53.802Z,8.73
2023-11-22T18:57:56.779Z,10.48
2023-11-22T18:59:59.981Z,9.30
2023-11-22T19:02:03.635Z,8.40
2023-11-22T19:04:07.067Z,8.57
2023-11-22T19:06:10.699Z,9.27
2023-11-22T19:08:13.029Z,8.13
2023-11-22T19:10:15.306Z,8.80
2023-11-22T19:12:18.637Z,9.23
2023-11-22T19:14:21.576Z,9.13
2023-11-22T19:16:23.619Z,10.50
2023-11-22T19:18:25.710Z,9.93
2023-11-22T19:20:28.666Z,11.25
2023-11-22T19:22:32.954Z,10.07
2023-11-22T19:24:35.019Z,10.27
2023-11-22T19:26:37.382Z,9.75
2023-11-22T19:28:39.388Z,10.60
2023-11-22T19:30:41.464Z,9.25
2023-11-22T19:32:43.619Z,10.13
2023-11-22T19:34:45.715Z,9.63
2023-11-22T19:36:47.688Z,10.63
2023-11-22T19:38:54.859Z,10.20
2023-11-22T19:40:57.112Z,10.80
2023-11-22T19:42:59.078Z,10.15
2023-11-22T19:45:01.975Z,9.70
2023-11-22T19:47:05.433Z,10.07
2023-11-22T19:49:10.182Z,9.45
2023-11-22T19:51:12.929Z,9.20
2023-11-22T19:53:14.982Z,10.88
2023-11-22T19:55:19.985Z,10.65
2023-11-22T19:57:23.158Z,9.25
2023-11-22T19:59:25.222Z,9.80
2023-11-22T20:01:27.500Z,10.95
2023-11-22T20:03:29.661Z,11.05
2023-11-22T20:05:31.870Z,10.30
2023-11-22T20:07:34.171Z,9.30
2023-11-22T20:09:38.287Z,9.18
2023-11-22T20:11:41.632Z,10.07
2023-11-22T20:13:44.167Z,9.35
2023-11-22T20:15:46.192Z,9.80
2023-11-22T20:17:48.413Z,9.63
2023-11-22T20:19:50.424Z,9.95
2023-11-22T20:21:53.071Z,8.65
2023-11-22T20:23:55.187Z,9.18
2023-11-22T20:25:57.230Z,9.88
2023-11-22T20:28:00.988Z,9.05
2023-11-22T20:30:03.353Z,10.15
2023-11-22T20:32:05.735Z,10.15
2023-11-22T20:34:07.826Z,8.82
2023-11-22T20:36:15.158Z,10.27
2023-11-22T20:38:17.162Z,10.23
2023-11-22T20:40:19.588Z,10.02
2023-11-22T20:42:21.587Z,10.43
2023-11-22T20:44:25.702Z,9.98
2023-11-22T20:46:27.983Z,10.07
2023-11-22T20:48:30.814Z,9.77
2023-11-22T20:50:33.102Z,9.18
2023-11-22T20:52:35.156Z,10.63
2023-11-22T20:54:37.848Z,10.35
2023-11-22T20:56:39.867Z,10.48
2023-11-22T20:58:41.902Z,10.98
2023-11-22T21:00:45.219Z,11.10
2023-11-22T21:02:47.296Z,10.40
2023-11-22T21:04:49.657Z,9.23
2023-11-22T21:06:51.689Z,8.60
2023-11-22T21:08:54.698Z,8.80
2023-11-22T21:10:56.863Z,9.55
2023-11-22T21:12:59.292Z,8.82
2023-11-22T21:15:01.357Z,7.65
2023-11-22T21:17:07.241Z,8.02
2023-11-22T21:19:09.851Z,8.00
2023-11-22T21:21:14.128Z,7.97
2023-11-22T21:23:16.307Z,7.97
2023-11-22T21:25:18.322Z,7.78
2023-11-22T21:27:20.430Z,8.52
2023-11-22T21:29:23.228Z,10.55
2023-11-22T21:31:25.408Z,9.32
2023-11-22T21:33:29.735Z,9.30
2023-11-22T21:35:31.767Z,6.47
2023-11-22T21:37:34.028Z,9.45
2023-11-22T21:39:35.966Z,8.80
2023-11-22T21:41:44.066Z,8.05
2023-11-22T21:43:46.216Z,7.78
2023-11-22T21:45:48.194Z,8.63
2023-11-22T21:47:50.470Z,8.50
2023-11-22T21:49:53.865Z,7.45
2023-11-22T21:51:56.372Z,8.75
2023-11-22T21:53:58.379Z,8.52
2023-11-22T21:56:04.857Z,8.60
2023-11-22T21:58:06.942Z,8.07
2023-11-22T22:00:12.275Z,8.25
2023-11-22T22:02:14.626Z,7.30
2023-11-22T22:04:17.210Z,7.43
2023-11-22T22:06:21.166Z,7.55
2023-11-22T22:08:23.085Z,7.38
2023-11-22T22:10:25.108Z,7.45
2023-11-22T22:12:27.099Z,7.80
2023-11-22T22:14:29.211Z,8.30
2023-11-22T22:16:31.161Z,8.32
2023-11-22T22:18:33.683Z,8.20
2023-11-22T22:20:43.250Z,8.00
2023-11-22T22:22:54.172Z,8.63
2023-11-22T22:24:56.163Z,8.95
2023-11-22T22:26:58.165Z,9.23
2023-11-22T22:29:00.204Z,9.02
2023-11-22T22:31:02.417Z,10.75
2023-11-22T22:33:04.861Z,10.77
2023-11-22T22:35:07.519Z,10.35
2023-11-22T22:37:09.551Z,10.63
2023-11-22T22:39:14.767Z,11.35
2023-11-22T22:41:20.638Z,10.05
2023-11-22T22:43:22.742Z,13.18
2023-11-22T22:45:24.722Z,10.90
2023-11-22T22:47:27.084Z,10.02
2023-11-22T22:49:29.424Z,9.82
2023-11-22T22:51:32.268Z,12.00
2023-11-22T22:53:34.761Z,10.05
2023-11-22T22:55:38.107Z,9.40
2023-11-22T22:57:40.265Z,9.88
2023-11-22T22:59:43.375Z,7.82
2023-11-22T23:01:47.939Z,8.63
2023-11-22T23:03:50.160Z,8.65
2023-11-22T23:05:52.254Z,9.25
2023-11-22T23:07:54.340Z,8.30
2023-11-22T23:09:57.638Z,8.23
2023-11-22T23:12:01.888Z,8.18
2023-11-22T23:14:06.833Z,8.20
2023-11-22T23:18:11.342Z,7.18
2023-11-22T23:20:14.449Z,7.32
2023-11-22T23:22:16.813Z,8.30
2023-11-22T23:26:27.317Z,7.28
2023-11-22T23:28:33.392Z,7.45
2023-11-22T23:30:35.512Z,7.65
2023-11-22T23:32:37.886Z,7.78
2023-11-22T23:34:40.771Z,7.88
2023-11-22T23:36:43.038Z,8.32
2023-11-22T23:38:46.649Z,7.93
2023-11-22T23:40:49.170Z,8.23
2023-11-22T23:42:51.263Z,8.38
2023-11-22T23:44:54.689Z,8.60
2023-11-22T23:46:56.641Z,9.13
2023-11-22T23:48:59.734Z,8.32
2023-11-22T23:51:01.946Z,8.10
2023-11-22T23:53:03.965Z,7.38
2023-11-22T23:55:11.992Z,7.63
2023-11-22T23:57:14.046Z,6.70
2023-11-22T23:59:17.841Z,7.55
